Rodbyhavn, Denmark
Current Conditions -  °F | °C
As of 5:20 AM on Tuesday 23 Dec 2014 (Local Time) from ETNL Reporting Station
NA  
Wind Chill: 50°   Ceiling: NA
Heat Index: 50°   Visibility: 2.2mi
Dew Point: 48°   Wind: 16mph
Humidity: 94%   Direction: 260°W
Pressure: 29.71"   Gusts: NA
Location:  54.65°N, 11.35°E
Report Text: ETNL 230420Z AUTO 26014KT 3600 // ////// 10/09 Q1006 ///
Loading
Personal Weather Stations






























Interactive Weather Map New forecast layout! Learn more

10-Day Weather Forecast

Advertisements
Track Severe Weather on mobile